Terminal Aerodrome Forecast
Issued by NWS

Home | Current Version | Previous Version | Text Only | Print | Product List | Glossary On
Versions: 1 2 3 4 5 6 7 8 9 10 11 12 13 14 15 16 17 18 19 20 21 22 23 24 25 26 27 28
193
FTUS41 KOKX 242338
TAFHPN
TAF
KHPN 242338Z 2500/2524 18008KT P6SM FEW150 BKN250
     FM250100 VRB04KT P6SM SCT150 BKN200
     FM251100 24005KT P6SM BKN050
     FM251600 24007KT 6SM HZ SCT050 SCT150 BKN200
     FM251900 27007KT P6SM SCT050 BKN100 PROB30 2520/2524 TSRA
      BKN040CB
      AMD NOT SKED=

USA.gov is the U.S. government's official web portal to all federal, state and local government web resources and services.